Time;durP1;ratioP1;P1;durP2;ratioP2;P2;SDS_P1;SDS_P2;PMS_P1;PMS_P2;Temp;Humidity;BMP_temperature;BMP_pressure;BME280_temperature;BME280_humidity;BME280_pressure;Samples;Min_cycle;Max_cycle;Signal;HPM_P1;HPM_P2
2021/05/21 00:02:10;;;;;;;4.68;1.52;;;14.20;99.90;;;;;;5064717;28;20173;-87
2021/05/21 00:04:35;;;;;;;7.90;1.48;;;14.20;99.90;;;;;;5048740;28;20171;-86
2021/05/21 00:07:01;;;;;;;6.93;1.33;;;14.20;99.90;;;;;;5053929;28;20207;-86
2021/05/21 00:09:27;;;;;;;3.70;1.33;;;14.10;99.90;;;;;;5036816;28;20249;-87
2021/05/21 00:11:52;;;;;;;6.70;1.65;;;14.20;99.90;;;;;;5053678;28;20168;-86
2021/05/21 00:14:19;;;;;;;9.98;1.65;;;14.10;99.90;;;;;;5054885;28;20171;-85
2021/05/21 00:16:45;;;;;;;2.92;1.60;;;14.10;99.90;;;;;;5054797;28;20530;-86
2021/05/21 00:19:11;;;;;;;10.07;1.70;;;14.10;99.90;;;;;;5053710;28;20203;-85
2021/05/21 00:21:37;;;;;;;8.55;1.98;;;14.10;99.90;;;;;;5054767;28;20217;-85
2021/05/21 00:24:03;;;;;;;5.45;1.90;;;14.10;99.90;;;;;;5054670;28;20266;-87
2021/05/21 00:26:29;;;;;;;3.05;1.90;;;14.10;99.90;;;;;;5066544;28;20211;-86
2021/05/21 00:28:55;;;;;;;4.30;2.40;;;14.00;99.90;;;;;;5075225;28;20194;-90
2021/05/21 00:31:21;;;;;;;10.05;2.40;;;13.90;99.90;;;;;;5076566;28;20190;-86
2021/05/21 00:33:46;;;;;;;6.90;3.28;;;13.90;99.90;;;;;;5053309;28;20184;-85
2021/05/21 00:36:12;;;;;;;3.70;2.67;;;13.90;99.90;;;;;;5036536;28;20171;-85
2021/05/21 00:38:37;;;;;;;4.55;2.63;;;13.90;99.90;;;;;;5052867;28;20585;-86
2021/05/21 00:41:03;;;;;;;5.25;2.53;;;13.90;99.90;;;;;;5054520;28;20171;-87
2021/05/21 00:43:29;;;;;;;6.85;1.98;;;14.00;99.90;;;;;;5062456;28;20164;-85
2021/05/21 00:45:55;;;;;;;8.27;2.40;;;14.00;99.90;;;;;;5054840;28;20213;-85
2021/05/21 00:48:21;;;;;;;3.72;1.45;;;14.10;99.90;;;;;;5074518;28;20203;-86
2021/05/21 00:50:49;;;;;;;9.10;2.20;;;14.10;99.90;;;;;;5052621;28;20708;-85
2021/05/21 00:53:20;;;;;;;3.80;1.55;;;14.10;99.90;;;;;;5054227;28;20623;-85
2021/05/21 00:55:46;;;;;;;2.55;1.52;;;14.10;99.90;;;;;;5052835;28;20254;-86
2021/05/21 00:58:13;;;;;;;2.38;1.33;;;14.20;99.90;;;;;;5032340;28;20278;-85
2021/05/21 01:00:38;;;;;;;2.58;1.20;;;14.20;99.90;;;;;;5042615;28;20540;-86
2021/05/21 01:03:04;;;;;;;5.07;1.10;;;14.20;99.90;;;;;;5052747;28;20171;-85
2021/05/21 01:05:30;;;;;;;1.67;0.80;;;14.20;99.90;;;;;;5054049;28;20163;-86
2021/05/21 01:07:55;;;;;;;3.80;0.85;;;14.30;99.90;;;;;;5053521;28;20203;-86
2021/05/21 01:10:21;;;;;;;2.47;1.00;;;14.30;99.90;;;;;;5052156;28;20629;-86
2021/05/21 01:12:48;;;;;;;2.83;0.80;;;14.30;99.90;;;;;;5053622;28;20183;-86
2021/05/21 01:15:15;;;;;;;3.17;1.58;;;14.30;99.90;;;;;;5052831;28;20170;-86
2021/05/21 01:17:40;;;;;;;3.58;0.90;;;14.30;99.90;;;;;;5053599;28;20175;-88
2021/05/21 01:20:09;;;;;;;5.70;1.02;;;14.30;99.90;;;;;;5036028;28;20610;-86
2021/05/21 01:22:34;;;;;;;3.92;0.88;;;14.20;99.90;;;;;;5052651;28;20170;-86
2021/05/21 01:25:00;;;;;;;6.30;0.98;;;14.20;99.90;;;;;;5052973;28;20171;-86
2021/05/21 01:27:26;;;;;;;3.08;0.93;;;14.20;99.90;;;;;;5052614;28;20224;-87
2021/05/21 01:29:52;;;;;;;10.25;1.10;;;14.10;99.90;;;;;;5052707;28;20203;-88
2021/05/21 01:32:18;;;;;;;4.72;0.77;;;14.10;99.90;;;;;;5036100;28;20612;-86
2021/05/21 01:34:43;;;;;;;2.10;0.80;;;14.10;99.90;;;;;;5052843;28;20742;-87
2021/05/21 01:37:20;;;;;;;6.40;0.80;;;14.00;99.90;;;;;;5052404;28;20564;-87
2021/05/21 01:39:47;;;;;;;1.88;0.93;;;14.10;99.90;;;;;;5051931;28;20635;-87
2021/05/21 01:42:15;;;;;;;2.92;1.17;;;14.10;99.90;;;;;;5053766;28;20163;-86
2021/05/21 01:44:41;;;;;;;4.05;1.10;;;14.10;99.90;;;;;;5053786;28;20675;-85
2021/05/21 01:47:10;;;;;;;8.45;1.08;;;14.00;99.90;;;;;;5067156;28;20719;-87
2021/05/21 01:49:36;;;;;;;7.32;1.15;;;14.10;99.90;;;;;;5049324;28;20203;-86
2021/05/21 01:52:01;;;;;;;2.83;1.20;;;14.10;99.90;;;;;;5052443;28;20637;-85
2021/05/21 01:54:29;;;;;;;3.67;0.90;;;14.10;99.90;;;;;;5053376;28;20163;-87
2021/05/21 01:56:56;;;;;;;5.05;1.20;;;14.10;99.90;;;;;;5052114;28;20202;-86
2021/05/21 01:59:23;;;;;;;12.82;1.45;;;14.10;99.90;;;;;;5053314;28;20659;-86
2021/05/21 02:01:50;;;;;;;4.45;0.80;;;14.10;99.90;;;;;;5052146;28;20171;-85
2021/05/21 02:04:16;;;;;;;2.13;0.82;;;14.10;99.90;;;;;;5052167;28;20167;-85
2021/05/21 02:06:42;;;;;;;4.03;0.77;;;14.10;99.90;;;;;;5053414;28;20171;-85
2021/05/21 02:09:09;;;;;;;2.90;1.02;;;14.10;99.90;;;;;;5035015;28;20302;-86
2021/05/21 02:11:37;;;;;;;3.58;1.10;;;14.10;99.90;;;;;;5055138;28;20504;-86
2021/05/21 02:14:04;;;;;;;4.85;1.13;;;14.20;99.90;;;;;;5056142;28;20171;-86
2021/05/21 02:16:30;;;;;;;8.85;1.80;;;14.10;99.90;;;;;;5057244;28;20190;-86
2021/05/21 02:18:56;;;;;;;3.50;1.17;;;14.10;99.90;;;;;;5037941;28;20613;-86
2021/05/21 02:21:24;;;;;;;4.00;1.08;;;14.00;99.90;;;;;;5057054;28;20621;-85
2021/05/21 02:23:50;;;;;;;5.38;1.48;;;14.00;99.90;;;;;;5057047;28;20163;-84
2021/05/21 02:26:17;;;;;;;2.33;1.13;;;14.00;99.90;;;;;;5055579;28;20256;-84
2021/05/21 02:28:43;;;;;;;3.35;1.20;;;13.90;99.90;;;;;;5055284;28;20226;-85
2021/05/21 02:31:09;;;;;;;9.10;1.60;;;13.90;99.90;;;;;;5019371;28;20232;-85
2021/05/21 02:33:34;;;;;;;9.02;1.10;;;13.90;99.90;;;;;;5033632;28;20272;-85
2021/05/21 02:36:00;;;;;;;5.82;1.02;;;13.90;99.90;;;;;;5050232;28;20199;-85
2021/05/21 02:38:25;;;;;;;2.67;1.10;;;13.80;99.90;;;;;;5055945;28;20266;-85
2021/05/21 02:40:51;;;;;;;3.67;1.08;;;13.80;99.90;;;;;;5056404;28;20167;-85
2021/05/21 02:43:17;;;;;;;1.73;1.00;;;13.70;99.90;;;;;;5055111;28;20533;-85
2021/05/21 02:45:42;;;;;;;4.72;1.00;;;13.60;99.90;;;;;;5035337;28;20693;-85
2021/05/21 02:48:08;;;;;;;6.57;1.33;;;13.60;99.90;;;;;;5050277;28;20208;-85
2021/05/21 02:50:34;;;;;;;5.10;1.15;;;13.60;99.90;;;;;;5056505;28;20624;-86
2021/05/21 02:52:59;;;;;;;2.85;1.20;;;13.50;99.90;;;;;;5056707;28;20228;-84
2021/05/21 02:55:25;;;;;;;2.20;0.88;;;13.50;99.90;;;;;;5066206;28;20163;-84
2021/05/21 02:57:51;;;;;;;4.30;1.33;;;13.50;99.90;;;;;;5076472;28;20167;-84
2021/05/21 03:00:17;;;;;;;5.78;1.42;;;13.40;99.90;;;;;;5079824;28;20167;-87
2021/05/21 03:02:43;;;;;;;6.00;1.73;;;13.40;99.90;;;;;;5056448;28;20197;-85
2021/05/21 03:05:09;;;;;;;3.70;1.05;;;13.30;99.90;;;;;;5038438;28;20612;-86
2021/05/21 03:07:35;;;;;;;4.05;1.73;;;13.30;99.90;;;;;;5054742;28;20175;-85
2021/05/21 03:10:00;;;;;;;6.40;1.50;;;13.30;99.90;;;;;;5054708;28;20179;-84
2021/05/21 03:12:26;;;;;;;8.50;1.55;;;13.30;99.90;;;;;;5062681;28;20206;-84
2021/05/21 03:14:51;;;;;;;11.15;1.60;;;13.30;99.90;;;;;;5069917;28;20166;-86
2021/05/21 03:17:17;;;;;;;8.60;1.95;;;13.40;99.90;;;;;;5076623;28;20175;-85
2021/05/21 03:19:43;;;;;;;9.75;2.00;;;13.40;99.90;;;;;;5054139;28;20209;-85
2021/05/21 03:22:09;;;;;;;6.30;1.95;;;13.40;99.90;;;;;;5055281;28;20174;-87
2021/05/21 03:24:35;;;;;;;15.05;2.13;;;13.50;99.90;;;;;;5054752;28;20202;-85
2021/05/21 03:27:00;;;;;;;10.00;2.17;;;13.60;99.90;;;;;;5054010;28;20532;-85
2021/05/21 03:29:26;;;;;;;15.73;2.05;;;13.50;99.90;;;;;;5037712;28;20195;-85
2021/05/21 03:31:52;;;;;;;9.00;2.03;;;13.40;99.90;;;;;;5054689;28;20653;-86
2021/05/21 03:34:18;;;;;;;12.90;1.80;;;13.30;99.90;;;;;;5055656;28;20174;-85
2021/05/21 03:36:44;;;;;;;6.60;1.55;;;13.20;99.90;;;;;;5054234;28;20179;-85
2021/05/21 03:39:10;;;;;;;4.97;1.00;;;13.10;99.90;;;;;;5055167;28;20183;-87
2021/05/21 03:41:36;;;;;;;8.18;1.35;;;12.90;99.90;;;;;;5037751;28;20171;-86
2021/05/21 03:44:02;;;;;;;4.13;1.67;;;12.80;99.90;;;;;;5058291;28;20522;-85
2021/05/21 03:46:28;;;;;;;5.13;1.45;;;12.70;99.90;;;;;;5054440;28;20172;-84
2021/05/21 03:48:54;;;;;;;7.13;1.67;;;12.70;99.90;;;;;;5037979;28;20226;-85
2021/05/21 03:51:20;;;;;;;6.32;2.67;;;12.80;99.90;;;;;;5058430;28;20160;-85
2021/05/21 03:53:46;;;;;;;7.90;1.42;;;12.90;99.90;;;;;;5038617;28;20198;-85
2021/05/21 03:56:12;;;;;;;3.95;1.50;;;12.90;99.90;;;;;;5054999;28;20574;-85
2021/05/21 03:58:38;;;;;;;6.28;1.50;;;12.80;99.90;;;;;;5053452;28;20214;-86
2021/05/21 04:01:04;;;;;;;5.40;1.25;;;12.70;99.90;;;;;;5055204;28;20166;-85
2021/05/21 04:03:30;;;;;;;7.80;1.92;;;12.60;99.90;;;;;;5053938;28;20191;-78
2021/05/21 04:05:56;;;;;;;4.63;1.45;;;12.60;99.90;;;;;;5055085;28;20203;-85
2021/05/21 04:08:22;;;;;;;7.55;1.67;;;12.60;99.90;;;;;;5053007;28;20734;-77
2021/05/21 04:10:47;;;;;;;5.85;1.83;;;12.70;99.90;;;;;;5053607;28;20171;-85
2021/05/21 04:13:13;;;;;;;6.57;1.35;;;12.80;99.90;;;;;;5037207;28;20175;-84
2021/05/21 04:15:39;;;;;;;6.65;1.75;;;12.90;99.90;;;;;;5054650;28;20199;-85
2021/05/21 04:18:10;;;;;;;7.35;1.70;;;13.00;99.90;;;;;;5053390;28;20258;-85
2021/05/21 04:20:36;;;;;;;5.15;1.88;;;13.00;99.90;;;;;;5053297;28;20176;-85
2021/05/21 04:23:02;;;;;;;3.95;1.63;;;13.00;99.90;;;;;;5054610;28;20217;-85
2021/05/21 04:25:28;;;;;;;2.88;1.10;;;12.90;99.90;;;;;;5054696;28;20643;-85
2021/05/21 04:27:54;;;;;;;4.32;1.77;;;12.90;99.90;;;;;;5054373;28;20326;-86
2021/05/21 04:30:22;;;;;;;6.20;1.73;;;12.70;99.90;;;;;;5053485;28;20175;-86
2021/05/21 04:32:50;;;;;;;12.90;2.40;;;12.70;99.90;;;;;;5052618;28;20182;-87
2021/05/21 04:35:16;;;;;;;7.07;1.70;;;12.70;99.90;;;;;;5052989;28;20509;-86
2021/05/21 04:37:41;;;;;;;8.00;1.90;;;12.70;99.90;;;;;;5053055;28;20174;-85
2021/05/21 04:40:07;;;;;;;7.28;1.90;;;12.70;99.90;;;;;;5054387;28;20624;-86
2021/05/21 04:42:33;;;;;;;6.68;1.65;;;12.80;99.90;;;;;;5054295;28;20169;-86
2021/05/21 04:44:59;;;;;;;9.43;1.58;;;12.80;99.90;;;;;;5053896;28;20182;-86
2021/05/21 04:47:24;;;;;;;11.68;1.73;;;12.80;99.90;;;;;;5052893;28;20198;-86
2021/05/21 04:49:50;;;;;;;9.02;1.80;;;12.80;99.90;;;;;;5032953;28;20695;-86
2021/05/21 04:52:15;;;;;;;7.32;1.70;;;12.80;99.90;;;;;;5050029;28;20172;-85
2021/05/21 04:54:41;;;;;;;7.60;2.25;;;12.80;99.90;;;;;;5043830;28;20182;-85
2021/05/21 04:57:07;;;;;;;13.45;1.95;;;12.80;99.90;;;;;;5054052;28;20199;-85
2021/05/21 04:59:34;;;;;;;10.00;2.42;;;12.80;99.90;;;;;;5052521;28;20207;-85
2021/05/21 05:02:00;;;;;;;10.88;2.58;;;12.70;99.90;;;;;;5036380;28;20628;-87
2021/05/21 05:04:26;;;;;;;12.32;2.35;;;12.70;99.90;;;;;;5053694;28;20263;-85
2021/05/21 05:06:51;;;;;;;14.23;2.58;;;12.60;99.90;;;;;;5052778;28;20179;-85
2021/05/21 05:09:17;;;;;;;19.80;3.05;;;12.60;99.90;;;;;;5052412;28;20221;-87
2021/05/21 05:11:43;;;;;;;11.55;2.15;;;12.60;99.90;;;;;;5052706;28;20246;-85
2021/05/21 05:14:11;;;;;;;21.65;2.90;;;12.60;99.90;;;;;;5052576;28;20167;-86
2021/05/21 05:16:38;;;;;;;16.85;2.38;;;12.90;99.90;;;;;;5052697;28;20197;-89
2021/05/21 05:19:04;;;;;;;16.92;2.85;;;13.40;99.90;;;;;;5051945;28;20262;-85
2021/05/21 05:21:33;;;;;;;11.63;2.60;;;13.70;99.90;;;;;;5052600;28;20168;-86
2021/05/21 05:24:01;;;;;;;20.52;2.95;;;14.50;99.90;;;;;;5067241;28;20239;-86
2021/05/21 05:26:28;;;;;;;12.95;2.97;;;15.20;99.90;;;;;;5074093;28;20174;-88
2021/05/21 05:28:53;;;;;;;16.15;2.20;;;15.80;99.90;;;;;;5076936;28;20218;-87
2021/05/21 05:31:19;;;;;;;8.45;2.25;;;16.50;99.90;;;;;;5055228;28;20175;-88
2021/05/21 05:33:46;;;;;;;14.82;3.17;;;16.30;99.90;;;;;;5053254;28;20179;-85
2021/05/21 05:36:11;;;;;;;11.07;2.83;;;16.40;99.90;;;;;;5052417;28;20202;-86
2021/05/21 05:38:37;;;;;;;16.90;3.55;;;15.80;99.90;;;;;;5053504;28;20206;-87
2021/05/21 05:41:03;;;;;;;14.18;3.15;;;15.30;99.90;;;;;;5062144;28;20179;-87
2021/05/21 05:43:29;;;;;;;14.93;3.47;;;15.10;99.90;;;;;;5071532;28;20167;-85
2021/05/21 05:45:54;;;;;;;17.33;3.58;;;15.30;99.90;;;;;;5062472;28;20210;-87
2021/05/21 05:48:20;;;;;;;17.15;3.63;;;15.90;99.90;;;;;;5056277;28;20246;-87
2021/05/21 05:50:47;;;;;;;13.52;2.83;;;16.60;99.90;;;;;;5057831;28;20167;-87
2021/05/21 05:53:13;;;;;;;13.25;3.25;;;17.00;99.90;;;;;;5058752;28;21506;-86
2021/05/21 05:55:41;;;;;;;20.65;3.35;;;17.30;99.90;;;;;;5057627;28;20171;-86
2021/05/21 05:58:08;;;;;;;14.93;3.10;;;17.90;99.90;;;;;;5057521;28;20193;-87
2021/05/21 06:00:34;;;;;;;9.32;2.83;;;18.40;99.90;;;;;;5056102;28;20163;-86
2021/05/21 06:03:10;;;;;;;11.20;3.20;;;18.70;99.90;;;;;;5057583;28;20194;-86
2021/05/21 06:05:36;;;;;;;14.80;3.25;;;18.80;99.90;;;;;;5055323;28;20182;-86
2021/05/21 06:08:05;;;;;;;13.05;3.75;;;19.50;99.90;;;;;;5056964;28;20555;-88
2021/05/21 06:10:31;;;;;;;14.20;3.22;;;19.50;99.90;;;;;;5056083;28;20178;-87
2021/05/21 06:13:02;;;;;;;14.93;3.15;;;18.80;99.90;;;;;;5039415;28;20179;-87
2021/05/21 06:15:28;;;;;;;19.02;3.50;;;17.50;99.90;;;;;;5056862;28;20186;-85
2021/05/21 06:17:56;;;;;;;20.45;4.00;;;16.80;99.90;;;;;;5057295;28;20159;-86
2021/05/21 06:20:23;;;;;;;17.08;4.20;;;16.30;99.90;;;;;;5039516;28;20172;-87
2021/05/21 06:22:49;;;;;;;16.70;3.78;;;17.30;99.90;;;;;;5056077;28;20182;-86
2021/05/21 06:25:18;;;;;;;15.65;3.63;;;17.00;99.90;;;;;;5055161;28;20167;-87
2021/05/21 06:27:43;;;;;;;20.88;3.90;;;16.50;99.90;;;;;;5057350;28;20629;-86
2021/05/21 06:30:11;;;;;;;12.52;3.28;;;17.40;99.90;;;;;;5055991;28;20178;-87
2021/05/21 06:32:37;;;;;;;18.05;3.55;;;18.60;99.90;;;;;;5039480;28;20551;-86
2021/05/21 06:35:05;;;;;;;12.38;2.92;;;17.70;99.90;;;;;;5055089;28;20172;-87
2021/05/21 06:37:30;;;;;;;14.75;3.60;;;16.70;99.90;;;;;;5056953;28;20250;-87
2021/05/21 06:39:56;;;;;;;25.13;4.25;;;17.10;99.90;;;;;;5057038;28;20213;-85
2021/05/21 06:42:22;;;;;;;17.73;3.92;;;17.00;99.90;;;;;;5055409;28;20179;-86
2021/05/21 06:44:47;;;;;;;22.23;3.60;;;16.50;99.90;;;;;;5038071;28;20172;-84
2021/05/21 06:47:13;;;;;;;20.25;3.42;;;15.80;99.90;;;;;;5056882;28;20254;-87
2021/05/21 06:49:39;;;;;;;14.85;3.15;;;15.20;99.90;;;;;;5056781;28;20290;-86
2021/05/21 06:52:06;;;;;;;16.98;3.65;;;14.80;99.90;;;;;;5055614;28;20182;-87
2021/05/21 06:54:33;;;;;;;24.52;4.78;;;14.50;99.90;;;;;;5054436;28;20632;-86
2021/05/21 06:56:58;;;;;;;23.23;4.18;;;14.40;99.90;;;;;;5055792;28;20527;-86
2021/05/21 06:59:24;;;;;;;18.98;3.28;;;14.80;99.90;;;;;;5057039;28;20171;-87
2021/05/21 07:01:50;;;;;;;20.73;3.67;;;15.60;99.90;;;;;;5055450;28;20275;-88
2021/05/21 07:04:16;;;;;;;10.15;2.85;;;16.80;99.90;;;;;;5056325;28;20541;-86
2021/05/21 07:06:41;;;;;;;19.13;3.80;;;17.90;99.90;;;;;;5056483;28;20624;-87
2021/05/21 07:09:07;;;;;;;15.10;3.58;;;19.20;99.90;;;;;;5055008;28;20218;-87
2021/05/21 07:11:33;;;;;;;18.38;3.47;;;19.30;99.90;;;;;;5038522;28;20183;-87
2021/05/21 07:13:59;;;;;;;14.55;3.55;;;19.90;99.90;;;;;;5038380;28;20179;-86
2021/05/21 07:16:25;;;;;;;18.83;3.38;;;20.90;99.90;;;;;;5056142;28;20532;-87
2021/05/21 07:18:51;;;;;;;17.33;3.33;;;22.00;99.90;;;;;;5054833;28;20229;-86
2021/05/21 07:21:17;;;;;;;11.23;3.15;;;23.00;99.90;;;;;;5056097;28;20171;-89
2021/05/21 07:23:42;;;;;;;9.82;3.15;;;23.20;99.90;;;;;;5034644;28;20176;-86
2021/05/21 07:26:08;;;;;;;12.45;3.38;;;23.30;99.90;;;;;;5038089;28;20205;-87
2021/05/21 07:28:34;;;;;;;12.40;3.55;;;22.90;99.90;;;;;;5055319;28;20656;-86
2021/05/21 07:30:59;;;;;;;10.43;3.33;;;22.60;99.90;;;;;;5055905;28;20178;-87
2021/05/21 07:33:25;;;;;;;12.10;3.40;;;22.20;99.90;;;;;;5056085;28;20176;-86
2021/05/21 07:35:51;;;;;;;17.75;3.92;;;21.90;99.90;;;;;;5034634;28;20507;-86
2021/05/21 07:38:17;;;;;;;11.02;3.17;;;20.90;99.90;;;;;;5067836;28;20207;-87
2021/05/21 07:40:43;;;;;;;16.10;3.90;;;19.90;99.90;;;;;;5036047;28;20207;-87
2021/05/21 07:43:09;;;;;;;14.95;3.40;;;18.60;99.90;;;;;;5070234;28;20169;-86
2021/05/21 07:45:35;;;;;;;18.35;3.65;;;18.10;99.90;;;;;;5043490;28;20288;-86
2021/05/21 07:48:00;;;;;;;17.10;4.10;;;17.60;99.90;;;;;;5054896;28;20513;-87
2021/05/21 07:50:26;;;;;;;24.15;4.70;;;16.90;99.90;;;;;;5061498;28;20178;-88
2021/05/21 07:52:52;;;;;;;14.73;2.70;;;16.30;99.90;;;;;;5072103;28;20203;-86
2021/05/21 07:55:17;;;;;;;17.15;3.28;;;16.10;99.90;;;;;;5079416;28;20175;-86
2021/05/21 07:57:43;;;;;;;23.23;3.80;;;16.20;99.90;;;;;;5068160;28;20191;-87
2021/05/21 08:00:10;;;;;;;11.45;2.83;;;15.80;99.90;;;;;;5054413;28;20179;-86
2021/05/21 08:02:37;;;;;;;11.80;3.63;;;15.50;99.90;;;;;;5054043;28;20226;-87
2021/05/21 08:05:04;;;;;;;18.08;3.97;;;15.20;99.90;;;;;;5053931;28;20179;-86
2021/05/21 08:07:30;;;;;;;23.13;4.05;;;14.90;99.90;;;;;;5055623;28;20179;-87
2021/05/21 08:09:56;;;;;;;18.63;3.65;;;14.70;99.90;;;;;;5070637;28;20213;-86
2021/05/21 08:12:23;;;;;;;18.83;3.58;;;14.80;99.90;;;;;;5078074;28;20162;-89
2021/05/21 08:14:49;;;;;;;18.38;3.03;;;14.90;99.90;;;;;;5061177;28;20616;-86
2021/05/21 08:17:15;;;;;;;19.27;3.70;;;15.00;99.90;;;;;;5053727;28;20168;-86
2021/05/21 08:19:41;;;;;;;20.15;3.90;;;15.20;99.90;;;;;;5054998;28;20639;-85
2021/05/21 08:22:06;;;;;;;22.10;3.67;;;15.50;99.90;;;;;;5053696;28;20179;-87
2021/05/21 08:24:32;;;;;;;23.70;4.15;;;15.70;99.90;;;;;;5036750;28;20229;-87
2021/05/21 08:26:58;;;;;;;15.77;2.97;;;15.80;99.90;;;;;;5053661;28;20245;-87
2021/05/21 08:29:24;;;;;;;20.30;3.38;;;16.10;99.90;;;;;;5033609;28;20282;-87
2021/05/21 08:31:50;;;;;;;17.80;3.67;;;16.40;99.90;;;;;;5042529;28;20207;-86
2021/05/21 08:34:16;;;;;;;13.20;3.53;;;16.40;99.90;;;;;;5036742;28;20179;-87
2021/05/21 08:36:41;;;;;;;23.00;3.80;;;17.50;99.90;;;;;;5053694;28;20168;-86
2021/05/21 08:39:07;;;;;;;18.60;4.35;;;17.90;99.90;;;;;;5053066;28;20224;-87
2021/05/21 08:41:37;;;;;;;11.15;3.60;;;18.40;99.90;;;;;;5053143;28;20640;-86
2021/05/21 08:44:03;;;;;;;19.05;3.97;;;19.70;99.90;;;;;;5054403;28;20168;-86
2021/05/21 08:46:32;;;;;;;14.57;3.70;;;19.80;99.90;;;;;;5054105;28;20160;-87
2021/05/21 08:48:59;;;;;;;14.75;3.38;;;19.10;99.90;;;;;;5052937;28;20227;-87
2021/05/21 08:51:25;;;;;;;19.58;3.75;;;19.10;99.90;;;;;;5053100;28;20583;-87
2021/05/21 08:53:50;;;;;;;13.88;3.17;;;18.90;99.90;;;;;;5054253;28;20210;-87
2021/05/21 08:56:16;;;;;;;23.58;3.88;;;18.90;99.90;;;;;;5054245;28;20250;-87
2021/05/21 08:58:43;;;;;;;17.15;4.03;;;18.30;99.90;;;;;;5049757;28;20179;-85
2021/05/21 09:01:10;;;;;;;26.52;3.58;;;17.50;99.90;;;;;;5084947;28;20210;-89
2021/05/21 09:03:36;;;;;;;16.45;3.13;;;16.90;99.90;;;;;;5052139;28;20163;-88
2021/05/21 09:06:13;;;;;;;14.70;3.25;;;17.00;99.90;;;;;;5036208;28;20174;-86
2021/05/21 09:08:49;;;;;;;19.27;3.35;;;17.00;99.90;;;;;;5052697;28;20198;-86
2021/05/21 09:11:33;;;;;;;18.77;3.40;;;17.50;99.90;;;;;;5041795;28;20622;-87
2021/05/21 09:14:02;;;;;;;14.43;3.35;;;20.30;99.90;;;;;;5034732;28;20605;-87
2021/05/21 09:16:30;;;;;;;14.40;3.55;;;20.90;99.90;;;;;;5037309;28;20171;-85
2021/05/21 09:19:10;;;;;;;10.30;3.10;;;22.20;99.90;;;;;;5085659;28;20172;-86
2021/05/21 09:21:58;;;;;;;9.63;2.85;;;23.00;99.90;;;;;;5052161;28;20611;-86
2021/05/21 09:24:27;;;;;;;11.82;2.97;;;22.40;99.90;;;;;;5053765;28;20178;-86
2021/05/21 09:26:54;;;;;;;17.05;3.33;;;21.90;99.90;;;;;;5053643;28;20183;-87
2021/05/21 09:29:40;;;;;;;13.77;3.38;;;20.70;99.90;;;;;;5086171;28;20195;-86
2021/05/21 09:32:28;;;;;;;14.30;3.70;;;21.20;99.90;;;;;;5048251;28;20542;-85
2021/05/21 09:35:06;;;;;;;11.43;3.70;;;22.10;99.90;;;;;;5049847;28;20177;-86
2021/05/21 09:37:33;;;;;;;20.20;3.15;;;22.90;99.90;;;;;;5052495;28;20163;-87
2021/05/21 09:40:00;;;;;;;15.85;3.90;;;22.90;99.90;;;;;;5038776;28;20230;-86
2021/05/21 09:42:26;;;;;;;13.50;2.33;;;22.70;99.90;;;;;;5043616;28;20266;-85
2021/05/21 09:44:52;;;;;;;17.63;2.90;;;21.80;99.90;;;;;;5048821;28;20222;-85
2021/05/21 09:47:17;;;;;;;19.67;3.22;;;21.20;99.90;;;;;;5066164;28;20176;-86
2021/05/21 09:49:43;;;;;;;14.95;3.35;;;20.30;99.90;;;;;;5045338;28;20252;-85
2021/05/21 09:52:11;;;;;;;10.88;2.70;;;19.20;99.90;;;;;;5026216;28;20207;-86
2021/05/21 09:54:55;;;;;;;15.75;2.95;;;18.40;99.90;;;;;;5033748;28;20285;-86
2021/05/21 09:57:34;;;;;;;18.20;2.95;;;17.50;99.90;;;;;;5039149;28;20183;-86
2021/05/21 10:00:00;;;;;;;19.95;3.45;;;17.10;99.90;;;;;;5053584;28;20187;-86
2021/05/21 10:02:31;;;;;;;21.10;3.00;;;16.80;99.90;;;;;;5046617;28;20198;-85
2021/05/21 10:04:58;;;;;;;17.20;2.83;;;16.50;99.90;;;;;;5032828;28;20172;-86
2021/05/21 10:07:25;;;;;;;12.70;2.83;;;15.70;99.90;;;;;;5032253;28;20165;-87
2021/05/21 10:09:51;;;;;;;17.02;3.20;;;15.70;99.90;;;;;;5031993;28;20212;-86
2021/05/21 10:12:17;;;;;;;12.57;2.47;;;16.80;99.90;;;;;;5039536;28;20168;-86
2021/05/21 10:14:48;;;;;;;19.65;3.70;;;18.00;99.90;;;;;;5052327;28;20194;-86
2021/05/21 10:17:17;;;;;;;22.00;3.13;;;18.50;99.90;;;;;;5040429;28;20190;-86
2021/05/21 10:19:44;;;;;;;17.92;3.42;;;18.80;99.90;;;;;;5048777;28;20195;-85
2021/05/21 10:22:13;;;;;;;12.00;3.00;;;19.00;99.90;;;;;;5059957;28;20160;-87
2021/05/21 10:24:42;;;;;;;15.45;2.63;;;18.70;99.90;;;;;;5086420;28;20655;-85
2021/05/21 10:27:18;;;;;;;16.17;3.60;;;17.70;99.90;;;;;;5031991;28;20180;-85
2021/05/21 10:29:57;;;;;;;16.70;3.67;;;17.30;99.90;;;;;;5032069;28;20203;-86
2021/05/21 10:32:30;;;;;;;12.35;3.05;;;18.20;99.90;;;;;;5053719;28;20166;-85
2021/05/21 10:35:12;;;;;;;7.55;2.50;;;20.40;99.90;;;;;;5039964;28;20278;-84
2021/05/21 10:37:39;;;;;;;14.48;2.60;;;22.90;99.90;;;;;;5108153;28;20178;-87
2021/05/21 10:40:25;;;;;;;14.45;2.30;;;23.50;99.90;;;;;;5079541;28;20177;-88
2021/05/21 10:42:52;;;;;;;20.08;2.97;;;23.10;99.90;;;;;;5049496;28;20210;-86
2021/05/21 10:45:20;;;;;;;18.23;3.33;;;23.90;99.90;;;;;;5057475;28;20176;-87
2021/05/21 10:47:56;;;;;;;9.38;2.95;;;23.90;99.90;;;;;;5051435;28;20576;-86
2021/05/21 10:50:22;;;;;;;11.98;3.00;;;23.00;99.90;;;;;;5054397;28;20171;-85
2021/05/21 10:52:51;;;;;;;8.52;2.95;;;23.60;99.90;;;;;;5055113;28;20175;-86
2021/05/21 10:55:18;;;;;;;10.48;2.88;;;23.90;99.90;;;;;;5056802;28;20195;-87
2021/05/21 10:58:02;;;;;;;12.20;3.13;;;22.90;99.90;;;;;;5067325;28;20218;-85
2021/05/21 11:00:27;;;;;;;7.10;2.35;;;21.70;99.90;;;;;;5056104;28;20190;-85
2021/05/21 11:02:55;;;;;;;10.93;3.47;;;21.20;99.90;;;;;;5038715;28;20207;-86
2021/05/21 11:05:35;;;;;;;11.40;2.70;;;20.50;99.90;;;;;;5055034;28;20617;-85
2021/05/21 11:08:12;;;;;;;14.68;3.15;;;20.30;99.90;;;;;;5054215;28;20528;-85
2021/05/21 11:10:37;;;;;;;19.33;3.25;;;21.40;99.90;;;;;;5054868;28;20206;-87
2021/05/21 11:13:10;;;;;;;18.77;3.13;;;20.70;99.90;;;;;;5054584;28;20203;-86
2021/05/21 11:15:38;;;;;;;9.27;2.63;;;19.90;99.90;;;;;;5054891;28;20263;-86
2021/05/21 11:18:11;;;;;;;12.95;2.88;;;19.00;99.90;;;;;;5055229;28;20654;-85
2021/05/21 11:20:52;;;;;;;15.65;3.30;;;18.30;99.90;;;;;;5038310;28;20513;-87
2021/05/21 11:23:21;;;;;;;11.43;2.63;;;18.30;99.90;;;;;;5058316;28;20182;-88
2021/05/21 11:26:21;;;;;;;15.50;2.88;;;19.30;99.90;;;;;;5053700;28;20203;-88
2021/05/21 11:28:49;;;;;;;9.00;2.67;;;20.80;99.90;;;;;;5043135;28;20225;-87
2021/05/21 11:31:25;;;;;;;16.52;2.45;;;22.00;99.90;;;;;;5054599;28;20258;-87
2021/05/21 11:33:57;;;;;;;14.00;2.70;;;21.20;99.90;;;;;;5054722;28;20252;-85
2021/05/21 11:36:24;;;;;;;13.45;2.78;;;20.90;99.90;;;;;;5053995;28;20270;-87
2021/05/21 11:38:50;;;;;;;13.82;2.60;;;21.40;99.90;;;;;;5054415;28;20179;-87
2021/05/21 11:41:18;;;;;;;17.02;2.33;;;23.20;99.90;;;;;;5054161;28;20175;-87
2021/05/21 11:43:46;;;;;;;12.07;2.45;;;23.80;99.90;;;;;;5055084;28;20262;-87
2021/05/21 11:46:20;;;;;;;8.57;3.05;;;24.10;99.90;;;;;;5053942;28;20172;-87
2021/05/21 11:48:47;;;;;;;16.38;2.70;;;22.40;99.90;;;;;;5053926;28;20206;-86
2021/05/21 11:51:20;;;;;;;6.65;2.20;;;21.00;99.90;;;;;;5054243;28;20625;-88
2021/05/21 11:53:46;;;;;;;10.15;2.55;;;20.90;99.90;;;;;;5054563;28;20604;-87
2021/05/21 11:56:12;;;;;;;11.18;2.38;;;21.00;99.90;;;;;;5054479;28;20175;-87
2021/05/21 11:58:38;;;;;;;11.23;2.58;;;21.80;99.90;;;;;;5055521;28;20190;-86
2021/05/21 12:01:04;;;;;;;19.45;2.45;;;22.20;99.90;;;;;;5055475;28;20171;-87
2021/05/21 12:03:40;;;;;;;8.95;2.80;;;23.00;99.90;;;;;;5042291;28;20175;-88
2021/05/21 12:06:06;;;;;;;11.32;2.65;;;22.10;99.90;;;;;;5059678;28;20156;-86
2021/05/21 12:08:33;;;;;;;13.27;2.58;;;22.80;99.90;;;;;;5037207;28;20707;-85
2021/05/21 12:11:00;;;;;;;18.52;2.53;;;23.70;99.90;;;;;;5054179;28;20262;-86
2021/05/21 12:13:32;;;;;;;5.97;2.03;;;23.10;99.20;;;;;;5055401;28;20167;-86
2021/05/21 12:16:12;;;;;;;8.77;2.72;;;20.80;99.90;;;;;;5053916;28;20616;-87
2021/05/21 12:18:37;;;;;;;17.13;2.22;;;19.40;99.90;;;;;;5055065;28;20227;-88
2021/05/21 12:21:03;;;;;;;11.90;2.17;;;19.60;99.90;;;;;;5054030;28;20647;-87
2021/05/21 12:23:39;;;;;;;9.07;2.10;;;19.80;99.90;;;;;;5037241;28;20613;-86
2021/05/21 12:26:10;;;;;;;9.88;2.25;;;19.80;99.90;;;;;;5055112;28;20198;-88
2021/05/21 12:28:37;;;;;;;11.18;2.70;;;19.60;99.90;;;;;;5053864;28;20337;-89
2021/05/21 12:31:04;;;;;;;8.18;2.78;;;19.40;99.90;;;;;;5054879;28;20195;-88
2021/05/21 12:33:37;;;;;;;12.40;2.92;;;19.10;99.90;;;;;;5055356;28;20178;-88
2021/05/21 12:36:04;;;;;;;8.38;2.38;;;19.20;99.90;;;;;;5058086;28;20205;-87
2021/05/21 12:38:30;;;;;;;9.02;2.00;;;19.10;99.90;;;;;;5073664;28;20178;-89
2021/05/21 12:40:57;;;;;;;10.55;2.35;;;19.20;99.90;;;;;;5075196;28;20258;-85
2021/05/21 12:43:28;;;;;;;7.40;1.75;;;19.10;99.90;;;;;;5057262;28;20166;-86